sensor_id;sensor_type;location;lat;lon;timestamp;pressure;altitude;pressure_sealevel;temperature;humidity
56330;BME280;42236;48.058;10.632;2023-07-13T00:00:15;94759.09;;;18.74;100.00
56330;BME280;42236;48.058;10.632;2023-07-13T00:03:02;94757.53;;;18.73;100.00
56330;BME280;42236;48.058;10.632;2023-07-13T00:05:57;94767.28;;;18.74;100.00
56330;BME280;42236;48.058;10.632;2023-07-13T00:08:44;94777.50;;;18.78;100.00
56330;BME280;42236;48.058;10.632;2023-07-13T00:11:39;94772.03;;;18.78;100.00
56330;BME280;42236;48.058;10.632;2023-07-13T00:14:47;94767.72;;;18.76;100.00
56330;BME280;42236;48.058;10.632;2023-07-13T00:17:35;94764.97;;;18.76;100.00
56330;BME280;42236;48.058;10.632;2023-07-13T00:20:24;94759.50;;;18.76;100.00
56330;BME280;42236;48.058;10.632;2023-07-13T00:23:37;94759.91;;;18.75;100.00
56330;BME280;42236;48.058;10.632;2023-07-13T00:26:23;94756.34;;;18.67;100.00
56330;BME280;42236;48.058;10.632;2023-07-13T00:29:12;94757.94;;;18.61;100.00
56330;BME280;42236;48.058;10.632;2023-07-13T00:31:57;94754.03;;;18.59;100.00
56330;BME280;42236;48.058;10.632;2023-07-13T00:35:20;94760.25;;;18.59;100.00
56330;BME280;42236;48.058;10.632;2023-07-13T00:38:41;94756.75;;;18.59;100.00
56330;BME280;42236;48.058;10.632;2023-07-13T00:41:52;94746.97;;;18.58;100.00
56330;BME280;42236;48.058;10.632;2023-07-13T00:48:09;94754.41;;;18.53;100.00
56330;BME280;42236;48.058;10.632;2023-07-13T00:51:28;94750.09;;;18.52;100.00
56330;BME280;42236;48.058;10.632;2023-07-13T00:54:46;94747.38;;;18.52;100.00
56330;BME280;42236;48.058;10.632;2023-07-13T00:57:32;94742.31;;;18.51;100.00
56330;BME280;42236;48.058;10.632;2023-07-13T01:00:20;94729.81;;;18.50;100.00
56330;BME280;42236;48.058;10.632;2023-07-13T01:03:07;94733.72;;;18.49;100.00
56330;BME280;42236;48.058;10.632;2023-07-13T01:05:56;94731.75;;;18.46;100.00
56330;BME280;42236;48.058;10.632;2023-07-13T01:08:42;94737.63;;;18.44;100.00
56330;BME280;42236;48.058;10.632;2023-07-13T01:11:34;94734.84;;;18.41;100.00
56330;BME280;42236;48.058;10.632;2023-07-13T01:14:40;94725.88;;;18.40;100.00
56330;BME280;42236;48.058;10.632;2023-07-13T01:17:29;94721.59;;;18.43;100.00
56330;BME280;42236;48.058;10.632;2023-07-13T01:20:29;94731.38;;;18.37;100.00
56330;BME280;42236;48.058;10.632;2023-07-13T01:23:18;94718.88;;;18.32;100.00
56330;BME280;42236;48.058;10.632;2023-07-13T01:26:17;94728.63;;;18.29;100.00
56330;BME280;42236;48.058;10.632;2023-07-13T01:29:06;94729.00;;;18.24;100.00
56330;BME280;42236;48.058;10.632;2023-07-13T01:31:53;94739.09;;;18.13;100.00
56330;BME280;42236;48.058;10.632;2023-07-13T01:34:41;94735.97;;;18.00;100.00
56330;BME280;42236;48.058;10.632;2023-07-13T01:41:09;94748.28;;;17.69;100.00
56330;BME280;42236;48.058;10.632;2023-07-13T01:44:07;94756.00;;;17.53;100.00
56330;BME280;42236;48.058;10.632;2023-07-13T01:50:37;94752.28;;;17.20;100.00
56330;BME280;42236;48.058;10.632;2023-07-13T01:53:41;94753.72;;;16.99;100.00
56330;BME280;42236;48.058;10.632;2023-07-13T01:56:27;94751.31;;;16.87;100.00
56330;BME280;42236;48.058;10.632;2023-07-13T01:59:38;94758.56;;;16.76;100.00
56330;BME280;42236;48.058;10.632;2023-07-13T02:02:24;94757.38;;;16.70;100.00
56330;BME280;42236;48.058;10.632;2023-07-13T02:05:13;94757.00;;;16.75;100.00
56330;BME280;42236;48.058;10.632;2023-07-13T02:08:15;94746.47;;;16.73;100.00
56330;BME280;42236;48.058;10.632;2023-07-13T02:11:07;94757.00;;;16.75;100.00
56330;BME280;42236;48.058;10.632;2023-07-13T02:13:53;94754.69;;;16.77;100.00
56330;BME280;42236;48.058;10.632;2023-07-13T02:17:10;94758.66;;;16.83;100.00
56330;BME280;42236;48.058;10.632;2023-07-13T02:19:56;94768.44;;;16.88;100.00
56330;BME280;42236;48.058;10.632;2023-07-13T02:22:42;94768.03;;;16.85;100.00
56330;BME280;42236;48.058;10.632;2023-07-13T02:25:27;94782.34;;;16.79;100.00
56330;BME280;42236;48.058;10.632;2023-07-13T02:28:13;94776.44;;;16.73;100.00
56330;BME280;42236;48.058;10.632;2023-07-13T02:31:11;94785.41;;;16.74;100.00
56330;BME280;42236;48.058;10.632;2023-07-13T02:34:00;94787.34;;;16.70;100.00
56330;BME280;42236;48.058;10.632;2023-07-13T02:36:46;94786.53;;;16.69;100.00
56330;BME280;42236;48.058;10.632;2023-07-13T02:40:20;94781.88;;;16.70;100.00
56330;BME280;42236;48.058;10.632;2023-07-13T02:43:02;94785.00;;;16.72;100.00
56330;BME280;42236;48.058;10.632;2023-07-13T02:45:48;94789.72;;;16.75;100.00
56330;BME280;42236;48.058;10.632;2023-07-13T02:48:34;94794.06;;;16.79;100.00
56330;BME280;42236;48.058;10.632;2023-07-13T02:51:32;94790.59;;;16.82;100.00
56330;BME280;42236;48.058;10.632;2023-07-13T02:54:21;94793.31;;;16.86;100.00
56330;BME280;42236;48.058;10.632;2023-07-13T02:57:10;94792.97;;;16.91;100.00
56330;BME280;42236;48.058;10.632;2023-07-13T02:59:55;94791.47;;;16.97;100.00
56330;BME280;42236;48.058;10.632;2023-07-13T03:02:41;94796.97;;;17.04;100.00
56330;BME280;42236;48.058;10.632;2023-07-13T03:05:27;94795.88;;;17.13;100.00
56330;BME280;42236;48.058;10.632;2023-07-13T03:08:28;94784.63;;;17.21;100.00
56330;BME280;42236;48.058;10.632;2023-07-13T03:11:33;94787.72;;;17.20;100.00
56330;BME280;42236;48.058;10.632;2023-07-13T03:14:19;94785.38;;;17.15;100.00
56330;BME280;42236;48.058;10.632;2023-07-13T03:17:04;94790.03;;;17.11;100.00
56330;BME280;42236;48.058;10.632;2023-07-13T03:19:55;94781.44;;;17.09;100.00
56330;BME280;42236;48.058;10.632;2023-07-13T03:22:45;94779.09;;;17.07;100.00
56330;BME280;42236;48.058;10.632;2023-07-13T03:25:40;94781.84;;;17.11;100.00
56330;BME280;42236;48.058;10.632;2023-07-13T03:28:26;94788.50;;;17.17;100.00
56330;BME280;42236;48.058;10.632;2023-07-13T03:31:15;94788.56;;;17.24;100.00
56330;BME280;42236;48.058;10.632;2023-07-13T03:34:01;94794.81;;;17.28;100.00
56330;BME280;42236;48.058;10.632;2023-07-13T03:36:47;94799.88;;;17.30;100.00
56330;BME280;42236;48.058;10.632;2023-07-13T03:39:33;94804.97;;;17.35;100.00
56330;BME280;42236;48.058;10.632;2023-07-13T03:42:21;94806.19;;;17.37;100.00
56330;BME280;42236;48.058;10.632;2023-07-13T03:45:13;94808.50;;;17.39;100.00
56330;BME280;42236;48.058;10.632;2023-07-13T03:47:59;94815.16;;;17.41;100.00
56330;BME280;42236;48.058;10.632;2023-07-13T03:50:56;94815.94;;;17.42;100.00
56330;BME280;42236;48.058;10.632;2023-07-13T03:53:46;94812.06;;;17.46;100.00
56330;BME280;42236;48.058;10.632;2023-07-13T03:56:33;94822.25;;;17.49;100.00
56330;BME280;42236;48.058;10.632;2023-07-13T03:59:22;94826.88;;;17.49;100.00
56330;BME280;42236;48.058;10.632;2023-07-13T04:02:08;94832.34;;;17.45;100.00
56330;BME280;42236;48.058;10.632;2023-07-13T04:04:53;94840.50;;;17.45;100.00
56330;BME280;42236;48.058;10.632;2023-07-13T04:07:39;94843.25;;;17.45;100.00
56330;BME280;42236;48.058;10.632;2023-07-13T04:10:37;94853.75;;;17.43;100.00
56330;BME280;42236;48.058;10.632;2023-07-13T04:16:48;94856.47;;;17.40;100.00
56330;BME280;42236;48.058;10.632;2023-07-13T04:19:34;94854.88;;;17.39;100.00
56330;BME280;42236;48.058;10.632;2023-07-13T04:22:19;94852.13;;;17.35;100.00
56330;BME280;42236;48.058;10.632;2023-07-13T04:25:06;94846.28;;;17.33;100.00
56330;BME280;42236;48.058;10.632;2023-07-13T04:27:52;94852.44;;;17.26;100.00
56330;BME280;42236;48.058;10.632;2023-07-13T04:30:41;94854.00;;;17.24;100.00
56330;BME280;42236;48.058;10.632;2023-07-13T04:33:27;94852.41;;;17.19;100.00
56330;BME280;42236;48.058;10.632;2023-07-13T04:36:14;94845.38;;;17.18;100.00
56330;BME280;42236;48.058;10.632;2023-07-13T04:39:00;94843.03;;;17.17;100.00
56330;BME280;42236;48.058;10.632;2023-07-13T04:41:46;94845.34;;;17.15;100.00
56330;BME280;42236;48.058;10.632;2023-07-13T04:44:31;94853.56;;;17.18;100.00
56330;BME280;42236;48.058;10.632;2023-07-13T04:47:18;94855.50;;;17.18;100.00
56330;BME280;42236;48.058;10.632;2023-07-13T04:50:04;94857.13;;;17.26;100.00
56330;BME280;42236;48.058;10.632;2023-07-13T04:52:50;94854.09;;;17.38;100.00
56330;BME280;42236;48.058;10.632;2023-07-13T04:55:37;94852.25;;;17.49;100.00
56330;BME280;42236;48.058;10.632;2023-07-13T04:58:23;94857.38;;;17.62;100.00
56330;BME280;42236;48.058;10.632;2023-07-13T05:01:10;94861.75;;;17.74;100.00
56330;BME280;42236;48.058;10.632;2023-07-13T05:03:55;94865.75;;;17.83;100.00
56330;BME280;42236;48.058;10.632;2023-07-13T05:06:44;94873.56;;;17.92;100.00
56330;BME280;42236;48.058;10.632;2023-07-13T05:09:29;94873.16;;;17.90;100.00
56330;BME280;42236;48.058;10.632;2023-07-13T05:12:18;94875.09;;;17.86;100.00
56330;BME280;42236;48.058;10.632;2023-07-13T05:15:04;94878.56;;;17.83;100.00
56330;BME280;42236;48.058;10.632;2023-07-13T05:17:50;94880.84;;;17.77;100.00
56330;BME280;42236;48.058;10.632;2023-07-13T05:20:36;94887.88;;;17.75;100.00
56330;BME280;42236;48.058;10.632;2023-07-13T05:23:24;94894.09;;;17.72;100.00
56330;BME280;42236;48.058;10.632;2023-07-13T05:26:11;94890.19;;;17.69;100.00
56330;BME280;42236;48.058;10.632;2023-07-13T05:28:59;94895.59;;;17.62;100.00
56330;BME280;42236;48.058;10.632;2023-07-13T05:31:45;94896.25;;;17.52;100.00
56330;BME280;42236;48.058;10.632;2023-07-13T05:34:33;94896.97;;;17.38;100.00
56330;BME280;42236;48.058;10.632;2023-07-13T05:37:19;94900.78;;;17.30;100.00
56330;BME280;42236;48.058;10.632;2023-07-13T05:40:05;94903.78;;;17.14;100.00
56330;BME280;42236;48.058;10.632;2023-07-13T05:42:51;94907.47;;;16.95;100.00
56330;BME280;42236;48.058;10.632;2023-07-13T05:45:37;94910.66;;;16.67;100.00
56330;BME280;42236;48.058;10.632;2023-07-13T05:48:25;94912.84;;;16.54;100.00
56330;BME280;42236;48.058;10.632;2023-07-13T05:51:11;94908.50;;;16.46;100.00
56330;BME280;42236;48.058;10.632;2023-07-13T05:53:57;94910.72;;;16.36;100.00
56330;BME280;42236;48.058;10.632;2023-07-13T05:56:43;94916.84;;;16.30;100.00
56330;BME280;42236;48.058;10.632;2023-07-13T05:59:29;94920.56;;;16.18;100.00
56330;BME280;42236;48.058;10.632;2023-07-13T06:02:14;94922.84;;;16.12;100.00
56330;BME280;42236;48.058;10.632;2023-07-13T06:05:00;94926.69;;;16.11;100.00
56330;BME280;42236;48.058;10.632;2023-07-13T06:07:46;94931.44;;;16.14;100.00
56330;BME280;42236;48.058;10.632;2023-07-13T06:10:35;94942.31;;;16.14;100.00
56330;BME280;42236;48.058;10.632;2023-07-13T06:13:22;94937.38;;;16.24;100.00
56330;BME280;42236;48.058;10.632;2023-07-13T06:16:08;94927.31;;;16.28;100.00
56330;BME280;42236;48.058;10.632;2023-07-13T06:18:56;94932.81;;;16.31;100.00
56330;BME280;42236;48.058;10.632;2023-07-13T06:21:42;94944.56;;;16.39;100.00
56330;BME280;42236;48.058;10.632;2023-07-13T06:24:28;94946.63;;;16.49;100.00
56330;BME280;42236;48.058;10.632;2023-07-13T06:27:14;94954.53;;;16.58;100.00
56330;BME280;42236;48.058;10.632;2023-07-13T06:30:02;94943.66;;;16.61;100.00
56330;BME280;42236;48.058;10.632;2023-07-13T06:32:49;94952.28;;;16.67;100.00
56330;BME280;42236;48.058;10.632;2023-07-13T06:35:35;94939.13;;;16.73;100.00
56330;BME280;42236;48.058;10.632;2023-07-13T06:38:21;94943.94;;;16.83;100.00
56330;BME280;42236;48.058;10.632;2023-07-13T06:41:07;94944.13;;;17.01;100.00
56330;BME280;42236;48.058;10.632;2023-07-13T06:43:53;94951.31;;;17.16;100.00
56330;BME280;42236;48.058;10.632;2023-07-13T06:46:42;94947.53;;;17.28;100.00
56330;BME280;42236;48.058;10.632;2023-07-13T06:49:27;94947.59;;;17.39;100.00
56330;BME280;42236;48.058;10.632;2023-07-13T06:52:13;94949.31;;;17.54;100.00
56330;BME280;42236;48.058;10.632;2023-07-13T06:54:59;94951.75;;;17.70;100.00
56330;BME280;42236;48.058;10.632;2023-07-13T06:57:45;94955.03;;;17.86;99.93
56330;BME280;42236;48.058;10.632;2023-07-13T07:00:31;94959.47;;;18.05;99.02
56330;BME280;42236;48.058;10.632;2023-07-13T07:03:16;94965.38;;;18.18;97.74
56330;BME280;42236;48.058;10.632;2023-07-13T07:06:16;94970.47;;;18.23;96.00
56330;BME280;42236;48.058;10.632;2023-07-13T07:09:02;94953.75;;;18.32;95.88
56330;BME280;42236;48.058;10.632;2023-07-13T07:11:48;94951.47;;;18.45;96.68
56330;BME280;42236;48.058;10.632;2023-07-13T07:14:34;94957.81;;;18.63;96.11
56330;BME280;42236;48.058;10.632;2023-07-13T07:17:20;94966.09;;;18.81;95.00
56330;BME280;42236;48.058;10.632;2023-07-13T07:20:06;94969.66;;;18.96;94.22
56330;BME280;42236;48.058;10.632;2023-07-13T07:23:14;94968.91;;;19.10;91.55
56330;BME280;42236;48.058;10.632;2023-07-13T07:29:05;94974.03;;;19.22;92.37
56330;BME280;42236;48.058;10.632;2023-07-13T07:31:50;94985.75;;;19.19;91.89
56330;BME280;42236;48.058;10.632;2023-07-13T07:34:36;94985.34;;;19.17;91.48
56330;BME280;42236;48.058;10.632;2023-07-13T07:37:25;94981.81;;;19.13;91.73
56330;BME280;42236;48.058;10.632;2023-07-13T07:40:13;94985.72;;;19.15;91.53
56330;BME280;42236;48.058;10.632;2023-07-13T07:43:38;94989.25;;;19.12;84.64
56330;BME280;42236;48.058;10.632;2023-07-13T07:46:27;94981.81;;;19.13;90.55
56330;BME280;42236;48.058;10.632;2023-07-13T07:49:13;94987.72;;;19.18;89.69
56330;BME280;42236;48.058;10.632;2023-07-13T07:51:59;94995.13;;;19.22;89.19
56330;BME280;42236;48.058;10.632;2023-07-13T07:54:45;95003.75;;;19.24;88.22
56330;BME280;42236;48.058;10.632;2023-07-13T07:57:31;95003.28;;;19.07;87.92
56330;BME280;42236;48.058;10.632;2023-07-13T08:00:18;95002.50;;;19.03;88.01
56330;BME280;42236;48.058;10.632;2023-07-13T08:03:19;95005.63;;;19.02;87.09
56330;BME280;42236;48.058;10.632;2023-07-13T08:06:04;95004.44;;;19.06;88.72
56330;BME280;42236;48.058;10.632;2023-07-13T08:08:50;95010.34;;;19.15;88.54
56330;BME280;42236;48.058;10.632;2023-07-13T08:11:36;95015.06;;;19.18;89.25
56330;BME280;42236;48.058;10.632;2023-07-13T08:14:22;95017.41;;;19.24;89.01
56330;BME280;42236;48.058;10.632;2023-07-13T08:17:17;95015.09;;;19.36;88.27
56330;BME280;42236;48.058;10.632;2023-07-13T08:20:03;95008.47;;;19.55;88.67
56330;BME280;42236;48.058;10.632;2023-07-13T08:22:49;95013.59;;;19.71;87.69
56330;BME280;42236;48.058;10.632;2023-07-13T08:25:35;95014.41;;;19.79;86.56
56330;BME280;42236;48.058;10.632;2023-07-13T08:31:51;95014.00;;;19.95;85.60
56330;BME280;42236;48.058;10.632;2023-07-13T08:34:36;95022.63;;;20.04;84.76
56330;BME280;42236;48.058;10.632;2023-07-13T08:37:23;95022.22;;;20.02;84.45
56330;BME280;42236;48.058;10.632;2023-07-13T08:40:20;95026.13;;;19.87;76.27
56330;BME280;42236;48.058;10.632;2023-07-13T08:43:35;95024.56;;;19.86;79.97
56330;BME280;42236;48.058;10.632;2023-07-13T08:46:34;95030.03;;;19.86;80.22
56330;BME280;42236;48.058;10.632;2023-07-13T08:49:22;95018.31;;;19.89;81.67
56330;BME280;42236;48.058;10.632;2023-07-13T08:52:17;95024.16;;;19.91;81.05
56330;BME280;42236;48.058;10.632;2023-07-13T08:55:22;95017.94;;;20.01;77.67
56330;BME280;42236;48.058;10.632;2023-07-13T08:58:14;95020.66;;;20.19;80.95
56330;BME280;42236;48.058;10.632;2023-07-13T09:01:22;95022.97;;;20.45;77.53
56330;BME280;42236;48.058;10.632;2023-07-13T09:04:37;95025.28;;;20.65;74.92
56330;BME280;42236;48.058;10.632;2023-07-13T09:10:52;95032.66;;;20.89;77.09
56330;BME280;42236;48.058;10.632;2023-07-13T09:14:00;95039.31;;;20.85;74.95
56330;BME280;42236;48.058;10.632;2023-07-13T09:17:01;95029.22;;;20.50;70.50
56330;BME280;42236;48.058;10.632;2023-07-13T09:20:23;95026.88;;;20.59;73.12
56330;BME280;42236;48.058;10.632;2023-07-13T09:23:16;95017.38;;;20.88;74.29
56330;BME280;42236;48.058;10.632;2023-07-13T09:26:27;95021.59;;;21.15;74.72
56330;BME280;42236;48.058;10.632;2023-07-13T09:29:23;95021.16;;;21.23;71.62
56330;BME280;42236;48.058;10.632;2023-07-13T09:32:18;95021.09;;;21.41;73.68
56330;BME280;42236;48.058;10.632;2023-07-13T09:35:11;95021.41;;;21.54;72.04
56330;BME280;42236;48.058;10.632;2023-07-13T09:38:02;95026.84;;;21.61;73.28
56330;BME280;42236;48.058;10.632;2023-07-13T09:41:13;95019.38;;;21.65;67.90
56330;BME280;42236;48.058;10.632;2023-07-13T09:46:55;95025.66;;;21.62;70.76
56330;BME280;42236;48.058;10.632;2023-07-13T09:49:41;95019.09;;;21.49;70.97
56330;BME280;42236;48.058;10.632;2023-07-13T09:52:49;95026.97;;;21.36;64.20
56330;BME280;42236;48.058;10.632;2023-07-13T09:55:52;95029.59;;;21.61;64.49
56330;BME280;42236;48.058;10.632;2023-07-13T09:58:41;95029.84;;;21.81;68.42
56330;BME280;42236;48.058;10.632;2023-07-13T10:01:47;95034.34;;;22.09;64.97
56330;BME280;42236;48.058;10.632;2023-07-13T10:04:41;95031.94;;;22.15;67.25
56330;BME280;42236;48.058;10.632;2023-07-13T10:07:27;95040.16;;;22.22;66.95
56330;BME280;42236;48.058;10.632;2023-07-13T10:10:22;95040.22;;;22.11;61.27
56330;BME280;42236;48.058;10.632;2023-07-13T10:13:44;95037.25;;;21.88;59.98
56330;BME280;42236;48.058;10.632;2023-07-13T10:16:34;95026.56;;;22.01;61.75
56330;BME280;42236;48.058;10.632;2023-07-13T10:19:41;95032.38;;;22.10;62.63
56330;BME280;42236;48.058;10.632;2023-07-13T10:23:23;95040.88;;;21.78;49.74
56330;BME280;42236;48.058;10.632;2023-07-13T10:34:17;95041.31;;;21.72;58.23
56330;BME280;42236;48.058;10.632;2023-07-13T10:37:57;95034.41;;;21.46;53.90
56330;BME280;42236;48.058;10.632;2023-07-13T10:44:41;95037.44;;;22.15;53.20
56330;BME280;42236;48.058;10.632;2023-07-13T10:58:40;95048.75;;;22.69;53.34
56330;BME280;42236;48.058;10.632;2023-07-13T11:19:47;95057.88;;;22.10;50.20
56330;BME280;42236;48.058;10.632;2023-07-13T11:36:22;95056.09;;;21.89;53.78
56330;BME280;42236;48.058;10.632;2023-07-13T11:39:18;95053.66;;;21.99;52.98
56330;BME280;42236;48.058;10.632;2023-07-13T11:42:12;95052.88;;;21.98;52.56
56330;BME280;42236;48.058;10.632;2023-07-13T11:45:01;95056.06;;;21.93;55.32
56330;BME280;42236;48.058;10.632;2023-07-13T11:47:56;95052.59;;;21.82;53.38
56330;BME280;42236;48.058;10.632;2023-07-13T11:51:19;95049.00;;;21.92;52.60
56330;BME280;42236;48.058;10.632;2023-07-13T12:01:04;95046.63;;;22.84;52.02
56330;BME280;42236;48.058;10.632;2023-07-13T12:03:51;95049.38;;;22.84;53.46
56330;BME280;42236;48.058;10.632;2023-07-13T12:06:38;95037.09;;;22.92;53.31
56330;BME280;42236;48.058;10.632;2023-07-13T12:09:34;95045.50;;;23.16;51.06
56330;BME280;42236;48.058;10.632;2023-07-13T12:12:53;95024.94;;;23.24;50.36
56330;BME280;42236;48.058;10.632;2023-07-13T12:15:47;95021.84;;;23.22;52.31
56330;BME280;42236;48.058;10.632;2023-07-13T12:19:26;95031.50;;;23.64;47.29
56330;BME280;42236;48.058;10.632;2023-07-13T12:22:28;95025.88;;;23.75;46.75
56330;BME280;42236;48.058;10.632;2023-07-13T12:25:30;95009.84;;;23.36;47.25
56330;BME280;42236;48.058;10.632;2023-07-13T12:28:48;95003.09;;;23.13;45.97
56330;BME280;42236;48.058;10.632;2023-07-13T12:32:08;95006.78;;;22.99;47.31
56330;BME280;42236;48.058;10.632;2023-07-13T12:35:19;94996.81;;;23.13;49.05
56330;BME280;42236;48.058;10.632;2023-07-13T12:38:44;95001.19;;;23.37;48.48
56330;BME280;42236;48.058;10.632;2023-07-13T12:41:25;95006.69;;;23.64;48.75
56330;BME280;42236;48.058;10.632;2023-07-13T12:44:15;95009.72;;;23.47;48.91
56330;BME280;42236;48.058;10.632;2023-07-13T12:57:19;94990.69;;;22.94;48.00
56330;BME280;42236;48.058;10.632;2023-07-13T13:00:41;94997.81;;;22.92;49.21
56330;BME280;42236;48.058;10.632;2023-07-13T13:03:38;94990.66;;;23.02;49.15
56330;BME280;42236;48.058;10.632;2023-07-13T13:06:28;94992.75;;;23.21;48.99
56330;BME280;42236;48.058;10.632;2023-07-13T13:09:17;94982.75;;;23.34;49.07
56330;BME280;42236;48.058;10.632;2023-07-13T13:12:06;94989.53;;;22.95;48.87
56330;BME280;42236;48.058;10.632;2023-07-13T13:15:10;94992.59;;;22.67;46.42
56330;BME280;42236;48.058;10.632;2023-07-13T13:18:19;94987.81;;;22.71;45.96
56330;BME280;42236;48.058;10.632;2023-07-13T13:25:21;94983.06;;;23.40;49.73
56330;BME280;42236;48.058;10.632;2023-07-13T13:28:19;94988.19;;;23.65;49.25
56330;BME280;42236;48.058;10.632;2023-07-13T13:31:12;94990.41;;;23.77;48.30
56330;BME280;42236;48.058;10.632;2023-07-13T13:34:01;94988.00;;;23.79;49.52
56330;BME280;42236;48.058;10.632;2023-07-13T13:36:47;94979.88;;;23.96;50.12
56330;BME280;42236;48.058;10.632;2023-07-13T13:43:16;94987.53;;;23.84;48.07
56330;BME280;42236;48.058;10.632;2023-07-13T13:46:40;94989.25;;;23.48;46.61
56330;BME280;42236;48.058;10.632;2023-07-13T13:49:27;94981.34;;;23.23;48.79
56330;BME280;42236;48.058;10.632;2023-07-13T13:52:24;94979.50;;;23.12;48.88
56330;BME280;42236;48.058;10.632;2023-07-13T13:55:15;94978.72;;;23.12;48.08
56330;BME280;42236;48.058;10.632;2023-07-13T13:58:22;94974.53;;;23.31;48.27
56330;BME280;42236;48.058;10.632;2023-07-13T14:01:18;94975.72;;;23.57;47.42
56330;BME280;42236;48.058;10.632;2023-07-13T14:04:19;94982.22;;;23.43;49.12
56330;BME280;42236;48.058;10.632;2023-07-13T14:07:05;94985.50;;;23.34;49.39
56330;BME280;42236;48.058;10.632;2023-07-13T14:10:17;94979.91;;;23.41;47.66
56330;BME280;42236;48.058;10.632;2023-07-13T14:13:40;94973.81;;;23.54;46.94
56330;BME280;42236;48.058;10.632;2023-07-13T14:20:20;94969.69;;;23.38;47.78
56330;BME280;42236;48.058;10.632;2023-07-13T14:23:31;94971.94;;;23.47;47.39
56330;BME280;42236;48.058;10.632;2023-07-13T14:26:41;94976.63;;;23.77;49.12
56330;BME280;42236;48.058;10.632;2023-07-13T14:29:27;94974.97;;;24.07;48.78
56330;BME280;42236;48.058;10.632;2023-07-13T14:32:22;94979.16;;;24.15;48.87
56330;BME280;42236;48.058;10.632;2023-07-13T14:38:38;94980.59;;;24.00;48.56
56330;BME280;42236;48.058;10.632;2023-07-13T14:41:43;94979.03;;;24.22;48.61
56330;BME280;42236;48.058;10.632;2023-07-13T14:48:23;94967.34;;;24.38;46.46
56330;BME280;42236;48.058;10.632;2023-07-13T14:54:27;94969.16;;;24.45;47.98
56330;BME280;42236;48.058;10.632;2023-07-13T14:57:15;94968.81;;;24.66;48.14
56330;BME280;42236;48.058;10.632;2023-07-13T15:00:15;94963.84;;;24.78;48.00
56330;BME280;42236;48.058;10.632;2023-07-13T15:03:25;94971.50;;;24.90;46.94
56330;BME280;42236;48.058;10.632;2023-07-13T15:06:23;94970.06;;;25.02;47.96
56330;BME280;42236;48.058;10.632;2023-07-13T15:09:11;94963.47;;;25.16;47.87
56330;BME280;42236;48.058;10.632;2023-07-13T15:12:03;94966.59;;;25.18;48.87
56330;BME280;42236;48.058;10.632;2023-07-13T15:14:50;94965.53;;;25.11;48.63
56330;BME280;42236;48.058;10.632;2023-07-13T15:17:38;94961.78;;;25.22;48.00
56330;BME280;42236;48.058;10.632;2023-07-13T15:20:49;94955.56;;;25.18;46.98
56330;BME280;42236;48.058;10.632;2023-07-13T15:23:36;94949.91;;;25.05;47.78
56330;BME280;42236;48.058;10.632;2023-07-13T15:27:07;94959.19;;;24.95;43.05
56330;BME280;42236;48.058;10.632;2023-07-13T15:30:14;94962.84;;;24.88;47.57
56330;BME280;42236;48.058;10.632;2023-07-13T15:33:21;94969.75;;;24.80;45.50
56330;BME280;42236;48.058;10.632;2023-07-13T15:36:16;94964.06;;;24.87;47.55
56330;BME280;42236;48.058;10.632;2023-07-13T15:39:02;94969.88;;;24.73;47.58
56330;BME280;42236;48.058;10.632;2023-07-13T15:41:48;94962.22;;;24.60;47.89
56330;BME280;42236;48.058;10.632;2023-07-13T15:48:25;94961.72;;;24.22;48.53
56330;BME280;42236;48.058;10.632;2023-07-13T15:54:58;94968.19;;;23.88;47.79
56330;BME280;42236;48.058;10.632;2023-07-13T15:57:50;94961.06;;;23.91;48.46
56330;BME280;42236;48.058;10.632;2023-07-13T16:00:46;94962.63;;;23.92;47.23
56330;BME280;42236;48.058;10.632;2023-07-13T16:03:32;94969.94;;;24.02;48.02
56330;BME280;42236;48.058;10.632;2023-07-13T16:06:24;94972.19;;;24.31;47.93
56330;BME280;42236;48.058;10.632;2023-07-13T16:09:22;94964.41;;;24.69;47.33
56330;BME280;42236;48.058;10.632;2023-07-13T16:12:30;94963.47;;;25.16;46.59
56330;BME280;42236;48.058;10.632;2023-07-13T16:15:43;94963.91;;;25.14;44.37
56330;BME280;42236;48.058;10.632;2023-07-13T16:18:33;94962.50;;;24.86;47.10
56330;BME280;42236;48.058;10.632;2023-07-13T16:21:18;94961.38;;;24.63;46.80
56330;BME280;42236;48.058;10.632;2023-07-13T16:24:04;94954.44;;;24.55;47.27
56330;BME280;42236;48.058;10.632;2023-07-13T16:26:51;94961.03;;;24.38;47.19
56330;BME280;42236;48.058;10.632;2023-07-13T16:29:38;94956.44;;;24.31;47.04
56330;BME280;42236;48.058;10.632;2023-07-13T16:32:24;94955.63;;;24.31;46.97
56330;BME280;42236;48.058;10.632;2023-07-13T16:35:13;94959.47;;;24.37;47.09
56330;BME280;42236;48.058;10.632;2023-07-13T16:38:00;94969.09;;;24.28;47.06
56330;BME280;42236;48.058;10.632;2023-07-13T16:40:46;94964.03;;;24.23;47.27
56330;BME280;42236;48.058;10.632;2023-07-13T16:43:32;94980.81;;;24.33;47.75
56330;BME280;42236;48.058;10.632;2023-07-13T16:46:21;94986.81;;;24.27;46.85
56330;BME280;42236;48.058;10.632;2023-07-13T16:49:34;94986.00;;;24.07;47.22
56330;BME280;42236;48.058;10.632;2023-07-13T16:52:22;94978.78;;;24.13;47.91
56330;BME280;42236;48.058;10.632;2023-07-13T16:55:40;94972.72;;;24.45;47.57
56330;BME280;42236;48.058;10.632;2023-07-13T16:58:27;94976.13;;;24.77;47.08
56330;BME280;42236;48.058;10.632;2023-07-13T17:01:31;94970.22;;;24.95;46.54
56330;BME280;42236;48.058;10.632;2023-07-13T17:04:17;94971.66;;;25.39;46.42
56330;BME280;42236;48.058;10.632;2023-07-13T17:07:07;94965.53;;;26.01;45.13
56330;BME280;42236;48.058;10.632;2023-07-13T17:09:55;94962.34;;;26.64;44.05